sensor_id;sensor_type;location;lat;lon;timestamp;temperature;humidity
44063;DHT22;29727;47.606;19.130;2023-01-01T00:00:19;7.10;81.00
44063;DHT22;29727;47.606;19.130;2023-01-01T00:02:45;7.10;81.10
44063;DHT22;29727;47.606;19.130;2023-01-01T00:05:11;7.10;81.00
44063;DHT22;29727;47.606;19.130;2023-01-01T00:07:36;7.10;81.00
44063;DHT22;29727;47.606;19.130;2023-01-01T00:10:02;7.10;81.00
44063;DHT22;29727;47.606;19.130;2023-01-01T00:12:47;7.10;80.90
44063;DHT22;29727;47.606;19.130;2023-01-01T00:15:13;7.00;80.90
44063;DHT22;29727;47.606;19.130;2023-01-01T00:17:38;7.00;80.90
44063;DHT22;29727;47.606;19.130;2023-01-01T00:20:04;7.00;80.10
44063;DHT22;29727;47.606;19.130;2023-01-01T00:22:31;7.00;80.10
44063;DHT22;29727;47.606;19.130;2023-01-01T00:24:56;6.90;80.10
44063;DHT22;29727;47.606;19.130;2023-01-01T00:27:22;6.80;80.40
44063;DHT22;29727;47.606;19.130;2023-01-01T00:29:47;6.80;80.60
44063;DHT22;29727;47.606;19.130;2023-01-01T00:32:13;6.80;80.80
44063;DHT22;29727;47.606;19.130;2023-01-01T00:34:39;6.70;81.00
44063;DHT22;29727;47.606;19.130;2023-01-01T00:37:04;6.70;81.00
44063;DHT22;29727;47.606;19.130;2023-01-01T00:39:30;6.70;80.90
44063;DHT22;29727;47.606;19.130;2023-01-01T00:41:56;6.70;80.90
44063;DHT22;29727;47.606;19.130;2023-01-01T00:44:21;6.70;80.90
44063;DHT22;29727;47.606;19.130;2023-01-01T00:46:47;6.70;80.90
44063;DHT22;29727;47.606;19.130;2023-01-01T00:49:12;6.70;81.00
44063;DHT22;29727;47.606;19.130;2023-01-01T00:51:38;6.60;81.10
44063;DHT22;29727;47.606;19.130;2023-01-01T00:54:04;6.60;80.80
44063;DHT22;29727;47.606;19.130;2023-01-01T00:56:29;6.60;80.80
44063;DHT22;29727;47.606;19.130;2023-01-01T00:58:55;6.60;80.90
44063;DHT22;29727;47.606;19.130;2023-01-01T01:01:21;6.60;80.80
44063;DHT22;29727;47.606;19.130;2023-01-01T01:03:47;6.60;80.50
44063;DHT22;29727;47.606;19.130;2023-01-01T01:06:15;6.50;80.70
44063;DHT22;29727;47.606;19.130;2023-01-01T01:08:43;6.50;81.00
44063;DHT22;29727;47.606;19.130;2023-01-01T06:55:50;7.50;90.90
44063;DHT22;29727;47.606;19.130;2023-01-01T06:58:15;6.30;90.70
44063;DHT22;29727;47.606;19.130;2023-01-01T07:00:41;6.40;90.70
44063;DHT22;29727;47.606;19.130;2023-01-01T07:03:09;6.40;90.80
44063;DHT22;29727;47.606;19.130;2023-01-01T07:05:35;6.50;90.50
44063;DHT22;29727;47.606;19.130;2023-01-01T07:08:00;6.50;90.50
44063;DHT22;29727;47.606;19.130;2023-01-01T07:10:26;6.50;90.10
44063;DHT22;29727;47.606;19.130;2023-01-01T07:12:52;6.60;89.60
44063;DHT22;29727;47.606;19.130;2023-01-01T07:15:17;6.60;89.00
44063;DHT22;29727;47.606;19.130;2023-01-01T07:17:43;6.60;88.00
44063;DHT22;29727;47.606;19.130;2023-01-01T07:20:09;6.60;87.70
44063;DHT22;29727;47.606;19.130;2023-01-01T07:22:36;6.60;87.80
44063;DHT22;29727;47.606;19.130;2023-01-01T07:25:02;6.60;87.90
44063;DHT22;29727;47.606;19.130;2023-01-01T07:27:28;6.60;88.00
44063;DHT22;29727;47.606;19.130;2023-01-01T07:29:54;6.70;87.40
44063;DHT22;29727;47.606;19.130;2023-01-01T07:32:19;6.60;87.80
44063;DHT22;29727;47.606;19.130;2023-01-01T07:34:45;6.70;88.00
44063;DHT22;29727;47.606;19.130;2023-01-01T07:37:11;6.70;87.90
44063;DHT22;29727;47.606;19.130;2023-01-01T07:39:36;6.70;86.90
44063;DHT22;29727;47.606;19.130;2023-01-01T07:42:02;6.70;86.50
44063;DHT22;29727;47.606;19.130;2023-01-01T07:44:28;6.70;86.00
44063;DHT22;29727;47.606;19.130;2023-01-01T07:47:22;6.70;85.40
44063;DHT22;29727;47.606;19.130;2023-01-01T07:49:49;6.70;85.70
44063;DHT22;29727;47.606;19.130;2023-01-01T07:52:15;6.60;86.20
44063;DHT22;29727;47.606;19.130;2023-01-01T07:54:41;6.50;86.80
44063;DHT22;29727;47.606;19.130;2023-01-01T07:57:06;6.50;87.10
44063;DHT22;29727;47.606;19.130;2023-01-01T07:59:32;6.40;87.60
44063;DHT22;29727;47.606;19.130;2023-01-01T08:01:58;6.40;88.40
44063;DHT22;29727;47.606;19.130;2023-01-01T08:04:23;6.40;88.70
44063;DHT22;29727;47.606;19.130;2023-01-01T08:06:51;6.30;89.10
44063;DHT22;29727;47.606;19.130;2023-01-01T08:09:17;6.30;89.40
44063;DHT22;29727;47.606;19.130;2023-01-01T08:11:42;6.20;89.90
44063;DHT22;29727;47.606;19.130;2023-01-01T08:14:08;6.20;89.50
44063;DHT22;29727;47.606;19.130;2023-01-01T08:16:34;6.20;90.00
44063;DHT22;29727;47.606;19.130;2023-01-01T08:18:59;6.20;90.10
44063;DHT22;29727;47.606;19.130;2023-01-01T08:21:25;6.20;90.20
44063;DHT22;29727;47.606;19.130;2023-01-01T08:23:51;6.20;90.30
44063;DHT22;29727;47.606;19.130;2023-01-01T08:26:29;6.30;90.50
44063;DHT22;29727;47.606;19.130;2023-01-01T08:28:55;6.30;90.60
44063;DHT22;29727;47.606;19.130;2023-01-01T08:31:22;6.40;89.90
44063;DHT22;29727;47.606;19.130;2023-01-01T08:33:47;6.40;90.00
44063;DHT22;29727;47.606;19.130;2023-01-01T08:36:13;6.40;90.10
44063;DHT22;29727;47.606;19.130;2023-01-01T08:38:41;6.50;90.40
44063;DHT22;29727;47.606;19.130;2023-01-01T08:41:07;6.50;90.70
44063;DHT22;29727;47.606;19.130;2023-01-01T08:43:33;6.60;90.80
44063;DHT22;29727;47.606;19.130;2023-01-01T08:45:58;6.60;90.40
44063;DHT22;29727;47.606;19.130;2023-01-01T08:48:24;6.70;90.30
44063;DHT22;29727;47.606;19.130;2023-01-01T08:50:54;6.70;90.00
44063;DHT22;29727;47.606;19.130;2023-01-01T08:53:20;6.70;90.00
44063;DHT22;29727;47.606;19.130;2023-01-01T08:56:01;6.80;90.40
44063;DHT22;29727;47.606;19.130;2023-01-01T08:58:28;6.80;90.10
44063;DHT22;29727;47.606;19.130;2023-01-01T09:00:54;6.80;90.10
44063;DHT22;29727;47.606;19.130;2023-01-01T09:03:20;6.80;90.20
44063;DHT22;29727;47.606;19.130;2023-01-01T09:05:46;6.80;90.30
44063;DHT22;29727;47.606;19.130;2023-01-01T09:08:12;6.90;90.60
44063;DHT22;29727;47.606;19.130;2023-01-01T09:10:38;6.90;90.60
44063;DHT22;29727;47.606;19.130;2023-01-01T09:13:04;6.90;90.30
44063;DHT22;29727;47.606;19.130;2023-01-01T09:15:30;6.90;90.20
44063;DHT22;29727;47.606;19.130;2023-01-01T09:17:55;6.90;90.00
44063;DHT22;29727;47.606;19.130;2023-01-01T14:01:07;9.20;90.40
44063;DHT22;29727;47.606;19.130;2023-01-01T14:03:52;9.20;90.40
44063;DHT22;29727;47.606;19.130;2023-01-01T14:06:41;9.20;90.50
44063;DHT22;29727;47.606;19.130;2023-01-01T14:09:13;9.20;90.60
44063;DHT22;29727;47.606;19.130;2023-01-01T14:11:39;9.10;90.60
44063;DHT22;29727;47.606;19.130;2023-01-01T14:14:20;9.10;90.80
44063;DHT22;29727;47.606;19.130;2023-01-01T14:16:53;9.20;90.90
44063;DHT22;29727;47.606;19.130;2023-01-01T14:19:22;9.20;90.90
44063;DHT22;29727;47.606;19.130;2023-01-01T14:21:48;9.20;91.00
44063;DHT22;29727;47.606;19.130;2023-01-01T14:24:17;9.30;91.00
44063;DHT22;29727;47.606;19.130;2023-01-01T14:26:44;9.30;90.90
44063;DHT22;29727;47.606;19.130;2023-01-01T14:29:20;9.30;91.00
44063;DHT22;29727;47.606;19.130;2023-01-01T14:31:47;9.30;90.90
44063;DHT22;29727;47.606;19.130;2023-01-01T14:34:29;9.40;90.90
44063;DHT22;29727;47.606;19.130;2023-01-01T14:36:57;9.40;90.90
44063;DHT22;29727;47.606;19.130;2023-01-01T14:39:34;9.40;91.10
44063;DHT22;29727;47.606;19.130;2023-01-01T14:42:15;9.50;91.10
44063;DHT22;29727;47.606;19.130;2023-01-01T14:44:43;9.50;91.00
44063;DHT22;29727;47.606;19.130;2023-01-01T14:47:32;9.50;91.00
44063;DHT22;29727;47.606;19.130;2023-01-01T14:50:04;9.60;90.90
44063;DHT22;29727;47.606;19.130;2023-01-01T14:52:36;9.60;91.00
44063;DHT22;29727;47.606;19.130;2023-01-01T14:55:03;9.60;90.70
44063;DHT22;29727;47.606;19.130;2023-01-01T14:57:31;9.60;90.80
44063;DHT22;29727;47.606;19.130;2023-01-01T14:59:57;9.60;90.90
44063;DHT22;29727;47.606;19.130;2023-01-01T15:02:26;9.70;90.50
44063;DHT22;29727;47.606;19.130;2023-01-01T15:04:54;9.70;90.60
44063;DHT22;29727;47.606;19.130;2023-01-01T15:07:21;9.70;90.60
44063;DHT22;29727;47.606;19.130;2023-01-01T15:09:48;9.70;90.50
44063;DHT22;29727;47.606;19.130;2023-01-01T15:12:17;9.70;90.60
44063;DHT22;29727;47.606;19.130;2023-01-01T15:14:43;9.70;90.70
44063;DHT22;29727;47.606;19.130;2023-01-01T15:17:15;9.70;90.50
44063;DHT22;29727;47.606;19.130;2023-01-01T15:19:43;9.70;90.40
44063;DHT22;29727;47.606;19.130;2023-01-01T15:53:34;9.50;90.20
44063;DHT22;29727;47.606;19.130;2023-01-01T15:56:04;9.50;90.40
44063;DHT22;29727;47.606;19.130;2023-01-01T16:01:37;9.40;90.60
44063;DHT22;29727;47.606;19.130;2023-01-01T16:04:20;9.40;90.60
44063;DHT22;29727;47.606;19.130;2023-01-01T16:06:50;9.40;90.70
44063;DHT22;29727;47.606;19.130;2023-01-01T16:09:17;9.50;90.60
44063;DHT22;29727;47.606;19.130;2023-01-01T16:11:44;9.40;90.50
44063;DHT22;29727;47.606;19.130;2023-01-01T16:14:10;9.40;90.60
44063;DHT22;29727;47.606;19.130;2023-01-01T16:16:37;9.50;90.50
44063;DHT22;29727;47.606;19.130;2023-01-01T16:19:04;9.40;90.40
44063;DHT22;29727;47.606;19.130;2023-01-01T16:21:31;9.40;90.60
44063;DHT22;29727;47.606;19.130;2023-01-01T16:24:00;9.40;90.50
44063;DHT22;29727;47.606;19.130;2023-01-01T16:26:26;9.40;90.60
44063;DHT22;29727;47.606;19.130;2023-01-01T16:28:51;9.40;90.70
44063;DHT22;29727;47.606;19.130;2023-01-01T16:31:23;9.40;90.70
44063;DHT22;29727;47.606;19.130;2023-01-01T16:33:54;9.40;90.60
44063;DHT22;29727;47.606;19.130;2023-01-01T16:36:21;9.40;90.70
44063;DHT22;29727;47.606;19.130;2023-01-01T16:38:47;9.40;90.70
44063;DHT22;29727;47.606;19.130;2023-01-01T16:41:14;9.40;90.80
44063;DHT22;29727;47.606;19.130;2023-01-01T16:43:41;9.40;90.60
44063;DHT22;29727;47.606;19.130;2023-01-01T16:46:08;9.50;90.70
44063;DHT22;29727;47.606;19.130;2023-01-01T16:48:34;9.50;90.60
44063;DHT22;29727;47.606;19.130;2023-01-01T16:50:59;9.50;90.40
44063;DHT22;29727;47.606;19.130;2023-01-01T16:53:25;9.50;90.60
44063;DHT22;29727;47.606;19.130;2023-01-01T16:55:51;9.50;90.60
44063;DHT22;29727;47.606;19.130;2023-01-01T16:58:17;9.50;90.60
44063;DHT22;29727;47.606;19.130;2023-01-01T17:00:43;9.60;90.70
44063;DHT22;29727;47.606;19.130;2023-01-01T17:03:09;9.60;90.50
44063;DHT22;29727;47.606;19.130;2023-01-01T17:05:35;9.60;90.60
44063;DHT22;29727;47.606;19.130;2023-01-01T17:08:01;9.70;90.70
44063;DHT22;29727;47.606;19.130;2023-01-01T17:10:27;9.70;90.60
44063;DHT22;29727;47.606;19.130;2023-01-01T17:12:52;9.80;89.90
44063;DHT22;29727;47.606;19.130;2023-01-01T17:15:23;9.80;90.20
44063;DHT22;29727;47.606;19.130;2023-01-01T17:17:48;9.90;90.00
44063;DHT22;29727;47.606;19.130;2023-01-01T17:20:14;9.90;90.20
44063;DHT22;29727;47.606;19.130;2023-01-01T17:22:40;9.90;89.80
44063;DHT22;29727;47.606;19.130;2023-01-01T17:25:06;9.90;89.70
44063;DHT22;29727;47.606;19.130;2023-01-01T17:27:34;9.80;89.90
44063;DHT22;29727;47.606;19.130;2023-01-01T17:30:00;9.90;90.10
44063;DHT22;29727;47.606;19.130;2023-01-01T17:32:26;9.90;90.00
44063;DHT22;29727;47.606;19.130;2023-01-01T17:34:51;9.90;89.60
44063;DHT22;29727;47.606;19.130;2023-01-01T17:37:17;9.90;89.50
44063;DHT22;29727;47.606;19.130;2023-01-01T17:39:43;9.80;89.40
44063;DHT22;29727;47.606;19.130;2023-01-01T17:42:08;9.80;90.00
44063;DHT22;29727;47.606;19.130;2023-01-01T17:44:34;9.80;90.00
44063;DHT22;29727;47.606;19.130;2023-01-01T17:47:00;9.80;90.10
44063;DHT22;29727;47.606;19.130;2023-01-01T17:49:25;9.80;90.20
44063;DHT22;29727;47.606;19.130;2023-01-01T17:51:51;9.80;90.20
44063;DHT22;29727;47.606;19.130;2023-01-01T17:54:16;9.80;90.00
44063;DHT22;29727;47.606;19.130;2023-01-01T17:56:42;9.80;90.00
44063;DHT22;29727;47.606;19.130;2023-01-01T17:59:08;9.80;90.10
44063;DHT22;29727;47.606;19.130;2023-01-01T18:01:34;9.90;90.00
44063;DHT22;29727;47.606;19.130;2023-01-01T18:04:05;9.90;89.90
44063;DHT22;29727;47.606;19.130;2023-01-01T18:06:32;9.90;90.00
44063;DHT22;29727;47.606;19.130;2023-01-01T18:09:00;9.80;90.00
44063;DHT22;29727;47.606;19.130;2023-01-01T18:11:28;9.80;90.10
44063;DHT22;29727;47.606;19.130;2023-01-01T18:13:55;9.90;90.00
44063;DHT22;29727;47.606;19.130;2023-01-01T18:16:21;9.80;90.00
44063;DHT22;29727;47.606;19.130;2023-01-01T18:18:47;9.90;90.10
44063;DHT22;29727;47.606;19.130;2023-01-01T18:21:17;9.90;90.10
44063;DHT22;29727;47.606;19.130;2023-01-01T18:23:46;9.90;90.00
44063;DHT22;29727;47.606;19.130;2023-01-01T18:26:11;9.90;89.90
44063;DHT22;29727;47.606;19.130;2023-01-01T18:28:38;9.90;89.50
44063;DHT22;29727;47.606;19.130;2023-01-01T18:31:09;9.90;89.70
44063;DHT22;29727;47.606;19.130;2023-01-01T18:33:35;9.90;89.40
44063;DHT22;29727;47.606;19.130;2023-01-01T18:36:15;9.90;89.90
44063;DHT22;29727;47.606;19.130;2023-01-01T18:38:44;10.00;90.00
44063;DHT22;29727;47.606;19.130;2023-01-01T18:41:39;10.00;89.70
44063;DHT22;29727;47.606;19.130;2023-01-01T18:44:20;10.00;89.50
44063;DHT22;29727;47.606;19.130;2023-01-01T18:49:31;10.00;89.70
44063;DHT22;29727;47.606;19.130;2023-01-01T18:54:33;10.00;90.00
44063;DHT22;29727;47.606;19.130;2023-01-01T18:57:13;10.00;89.80
44063;DHT22;29727;47.606;19.130;2023-01-01T18:59:41;10.00;89.60
44063;DHT22;29727;47.606;19.130;2023-01-01T19:02:38;10.00;89.70
44063;DHT22;29727;47.606;19.130;2023-01-01T19:05:25;10.00;89.70
44063;DHT22;29727;47.606;19.130;2023-01-01T19:10:37;10.10;90.10
44063;DHT22;29727;47.606;19.130;2023-01-01T19:13:32;10.10;89.90
44063;DHT22;29727;47.606;19.130;2023-01-01T19:16:15;10.20;89.40
44063;DHT22;29727;47.606;19.130;2023-01-01T19:18:44;10.20;89.30
44063;DHT22;29727;47.606;19.130;2023-01-01T19:26:04;10.20;88.80
44063;DHT22;29727;47.606;19.130;2023-01-01T19:28:32;10.20;88.70
44063;DHT22;29727;47.606;19.130;2023-01-01T19:30:59;10.20;88.90
44063;DHT22;29727;47.606;19.130;2023-01-01T19:33:26;10.20;88.80
44063;DHT22;29727;47.606;19.130;2023-01-01T19:35:51;10.10;89.00
44063;DHT22;29727;47.606;19.130;2023-01-01T19:38:17;10.10;89.40
44063;DHT22;29727;47.606;19.130;2023-01-01T19:40:43;10.10;89.50
44063;DHT22;29727;47.606;19.130;2023-01-01T19:43:08;10.10;89.20
44063;DHT22;29727;47.606;19.130;2023-01-01T19:45:34;10.10;88.90
44063;DHT22;29727;47.606;19.130;2023-01-01T19:48:00;10.10;89.10
44063;DHT22;29727;47.606;19.130;2023-01-01T19:50:25;10.10;89.50
44063;DHT22;29727;47.606;19.130;2023-01-01T19:52:51;10.20;89.40
44063;DHT22;29727;47.606;19.130;2023-01-01T19:55:16;10.20;89.20
44063;DHT22;29727;47.606;19.130;2023-01-01T19:57:42;10.20;89.30
44063;DHT22;29727;47.606;19.130;2023-01-01T20:00:08;10.20;89.20
44063;DHT22;29727;47.606;19.130;2023-01-01T20:02:34;10.20;89.30
44063;DHT22;29727;47.606;19.130;2023-01-01T20:04:59;10.20;88.90
44063;DHT22;29727;47.606;19.130;2023-01-01T20:07:25;10.20;88.60
44063;DHT22;29727;47.606;19.130;2023-01-01T20:09:51;10.20;88.40
44063;DHT22;29727;47.606;19.130;2023-01-01T20:12:16;10.20;88.30
44063;DHT22;29727;47.606;19.130;2023-01-01T20:14:42;10.20;88.20
44063;DHT22;29727;47.606;19.130;2023-01-01T20:17:08;10.20;88.20
44063;DHT22;29727;47.606;19.130;2023-01-01T20:19:33;10.20;88.60
44063;DHT22;29727;47.606;19.130;2023-01-01T20:22:00;10.20;88.80
44063;DHT22;29727;47.606;19.130;2023-01-01T20:24:45;10.20;88.80
44063;DHT22;29727;47.606;19.130;2023-01-01T20:27:12;10.20;88.80
44063;DHT22;29727;47.606;19.130;2023-01-01T20:29:38;10.20;88.80
44063;DHT22;29727;47.606;19.130;2023-01-01T20:32:05;10.20;89.10
44063;DHT22;29727;47.606;19.130;2023-01-01T20:34:36;10.20;89.30
44063;DHT22;29727;47.606;19.130;2023-01-01T20:37:02;10.30;88.90
44063;DHT22;29727;47.606;19.130;2023-01-01T20:39:46;10.30;89.00
44063;DHT22;29727;47.606;19.130;2023-01-01T20:42:12;10.30;88.90
44063;DHT22;29727;47.606;19.130;2023-01-01T20:44:37;10.30;88.80
44063;DHT22;29727;47.606;19.130;2023-01-01T20:47:07;10.40;87.90
44063;DHT22;29727;47.606;19.130;2023-01-01T20:49:33;10.30;88.40
44063;DHT22;29727;47.606;19.130;2023-01-01T20:51:59;10.40;88.80
44063;DHT22;29727;47.606;19.130;2023-01-01T20:54:24;10.30;88.70
44063;DHT22;29727;47.606;19.130;2023-01-01T20:56:50;10.40;88.40
44063;DHT22;29727;47.606;19.130;2023-01-01T20:59:16;10.40;88.50
44063;DHT22;29727;47.606;19.130;2023-01-01T21:01:42;10.40;88.40
44063;DHT22;29727;47.606;19.130;2023-01-01T21:04:09;10.40;88.40
44063;DHT22;29727;47.606;19.130;2023-01-01T21:06:35;10.40;88.10
44063;DHT22;29727;47.606;19.130;2023-01-01T21:09:01;10.40;88.40
44063;DHT22;29727;47.606;19.130;2023-01-01T21:11:30;10.50;88.20
44063;DHT22;29727;47.606;19.130;2023-01-01T21:13:56;10.50;88.20
44063;DHT22;29727;47.606;19.130;2023-01-01T21:16:25;10.40;87.90
44063;DHT22;29727;47.606;19.130;2023-01-01T21:18:53;10.40;88.30
44063;DHT22;29727;47.606;19.130;2023-01-01T21:21:32;10.50;87.50
44063;DHT22;29727;47.606;19.130;2023-01-01T21:24:34;10.50;87.30
44063;DHT22;29727;47.606;19.130;2023-01-01T21:29:32;10.50;88.00
44063;DHT22;29727;47.606;19.130;2023-01-01T21:32:36;10.50;87.50
44063;DHT22;29727;47.606;19.130;2023-01-01T21:37:53;10.40;87.90
44063;DHT22;29727;47.606;19.130;2023-01-01T21:40:34;10.40;88.40
44063;DHT22;29727;47.606;19.130;2023-01-01T21:45:39;10.40;88.30
44063;DHT22;29727;47.606;19.130;2023-01-01T21:48:32;10.40;88.20
44063;DHT22;29727;47.606;19.130;2023-01-01T21:50:59;10.40;88.00
44063;DHT22;29727;47.606;19.130;2023-01-01T21:53:34;10.40;88.20
44063;DHT22;29727;47.606;19.130;2023-01-01T21:56:37;10.40;88.40
44063;DHT22;29727;47.606;19.130;2023-01-01T21:59:29;10.40;87.90
44063;DHT22;29727;47.606;19.130;2023-01-01T22:04:44;10.50;87.70
44063;DHT22;29727;47.606;19.130;2023-01-01T22:07:27;10.40;87.60
44063;DHT22;29727;47.606;19.130;2023-01-01T22:09:59;10.50;86.80
44063;DHT22;29727;47.606;19.130;2023-01-01T22:12:28;10.50;87.30
44063;DHT22;29727;47.606;19.130;2023-01-01T22:14:58;10.50;87.30
44063;DHT22;29727;47.606;19.130;2023-01-01T22:17:28;10.50;87.00
44063;DHT22;29727;47.606;19.130;2023-01-01T22:19:58;10.50;86.80
44063;DHT22;29727;47.606;19.130;2023-01-01T22:22:33;10.50;86.70
44063;DHT22;29727;47.606;19.130;2023-01-01T22:25:02;10.40;86.90
44063;DHT22;29727;47.606;19.130;2023-01-01T22:27:34;10.40;87.30
44063;DHT22;29727;47.606;19.130;2023-01-01T22:32:53;10.40;86.60
44063;DHT22;29727;47.606;19.130;2023-01-01T22:35:30;10.40;86.10
44063;DHT22;29727;47.606;19.130;2023-01-01T22:37:57;10.40;86.40
44063;DHT22;29727;47.606;19.130;2023-01-01T22:40:36;10.40;86.40
44063;DHT22;29727;47.606;19.130;2023-01-01T22:45:42;10.30;86.00
44063;DHT22;29727;47.606;19.130;2023-01-01T22:48:22;10.20;86.00
44063;DHT22;29727;47.606;19.130;2023-01-01T22:50:49;10.20;85.70
44063;DHT22;29727;47.606;19.130;2023-01-01T22:53:16;10.10;85.80
44063;DHT22;29727;47.606;19.130;2023-01-01T22:55:42;10.10;86.00
44063;DHT22;29727;47.606;19.130;2023-01-01T22:58:10;10.00;86.00
44063;DHT22;29727;47.606;19.130;2023-01-01T23:00:36;10.00;86.40
44063;DHT22;29727;47.606;19.130;2023-01-01T23:03:02;9.90;86.00
44063;DHT22;29727;47.606;19.130;2023-01-01T23:05:28;9.90;86.00
44063;DHT22;29727;47.606;19.130;2023-01-01T23:07:53;9.80;86.20
44063;DHT22;29727;47.606;19.130;2023-01-01T23:10:19;9.70;86.60
44063;DHT22;29727;47.606;19.130;2023-01-01T23:12:45;9.70;87.10
44063;DHT22;29727;47.606;19.130;2023-01-01T23:15:10;9.60;87.30
44063;DHT22;29727;47.606;19.130;2023-01-01T23:17:55;9.60;87.10
44063;DHT22;29727;47.606;19.130;2023-01-01T23:20:20;9.60;87.10
44063;DHT22;29727;47.606;19.130;2023-01-01T23:22:49;9.60;87.30
44063;DHT22;29727;47.606;19.130;2023-01-01T23:25:16;9.60;87.20
44063;DHT22;29727;47.606;19.130;2023-01-01T23:27:46;9.70;86.90
44063;DHT22;29727;47.606;19.130;2023-01-01T23:30:13;9.60;85.30
44063;DHT22;29727;47.606;19.130;2023-01-01T23:32:39;9.60;85.60
44063;DHT22;29727;47.606;19.130;2023-01-01T23:35:06;9.60;85.70
44063;DHT22;29727;47.606;19.130;2023-01-01T23:37:33;9.50;85.90
44063;DHT22;29727;47.606;19.130;2023-01-01T23:39:59;9.40;86.40
44063;DHT22;29727;47.606;19.130;2023-01-01T23:42:25;9.40;86.70
44063;DHT22;29727;47.606;19.130;2023-01-01T23:44:50;9.30;87.10
44063;DHT22;29727;47.606;19.130;2023-01-01T23:47:16;9.30;87.80
44063;DHT22;29727;47.606;19.130;2023-01-01T23:49:42;9.30;87.60
44063;DHT22;29727;47.606;19.130;2023-01-01T23:52:08;9.30;87.90
44063;DHT22;29727;47.606;19.130;2023-01-01T23:54:34;9.30;88.30
44063;DHT22;29727;47.606;19.130;2023-01-01T23:56:59;9.30;87.90
44063;DHT22;29727;47.606;19.130;2023-01-01T23:59:25;9.30;87.70
